Time;durP1;ratioP1;P1;durP2;ratioP2;P2;SDS_P1;SDS_P2;PMS_P1;PMS_P2;Temp;Humidity;BMP_temperature;BMP_pressure;BME280_temperature;BME280_humidity;BME280_pressure;Samples;Min_cycle;Max_cycle;Signal;HPM_P1;HPM_P2
2023/11/22 00:02:22;;;;;;;0.30;0.30;;;;;;;9.02;100.00;102544.06;5038031;28;20033;-82
2023/11/22 00:04:48;;;;;;;0.40;0.40;;;;;;;8.96;100.00;102534.66;5054404;28;20032;-82
2023/11/22 00:07:14;;;;;;;0.30;0.30;;;;;;;8.98;100.00;102543.44;5037425;28;20032;-82
2023/11/22 00:09:42;;;;;;;0.30;0.30;;;;;;;8.99;100.00;102538.94;5021376;28;20486;-82
2023/11/22 00:12:08;;;;;;;0.30;0.30;;;;;;;9.00;100.00;102536.13;5021400;28;20380;-82
2023/11/22 00:14:34;;;;;;;0.35;0.35;;;;;;;9.02;100.00;102533.31;5054028;28;20040;-82
2023/11/22 00:17:01;;;;;;;0.40;0.40;;;;;;;9.02;100.00;102528.81;5021405;28;20032;-82
2023/11/22 00:19:28;;;;;;;0.30;0.30;;;;;;;9.02;100.00;102528.81;5055164;28;20048;-82
2023/11/22 00:21:53;;;;;;;0.40;0.40;;;;;;;9.02;100.00;102533.31;5037676;28;20104;-82
2023/11/22 00:24:19;;;;;;;0.40;0.40;;;;;;;9.00;100.00;102524.56;5037347;28;20021;-82
2023/11/22 00:26:44;;;;;;;0.30;0.30;;;;;;;9.05;100.00;102534.91;5053689;28;20029;-82
2023/11/22 00:29:10;;;;;;;0.30;0.30;;;;;;;9.04;100.00;102544.78;5053748;28;20036;-82
2023/11/22 00:31:36;;;;;;;0.30;0.30;;;;;;;9.05;100.00;102541.16;5053976;28;20043;-82
2023/11/22 00:34:01;;;;;;;0.40;0.40;;;;;;;9.07;100.00;102552.59;5037027;28;20665;-82
2023/11/22 00:36:27;;;;;;;0.40;0.40;;;;;;;9.07;100.00;102552.59;5020586;28;20040;-82
2023/11/22 00:38:52;;;;;;;0.30;0.30;;;;;;;9.07;100.00;102549.91;5053439;28;20085;-82
2023/11/22 00:41:18;;;;;;;0.40;0.40;;;;;;;9.08;100.00;102553.47;5036441;28;20099;-82
2023/11/22 00:43:43;;;;;;;0.30;0.30;;;;;;;9.07;100.00;102541.00;5053394;28;20041;-82
2023/11/22 00:46:09;;;;;;;0.35;0.35;;;;;;;9.06;100.00;102532.09;5036836;28;20036;-82
2023/11/22 00:48:35;;;;;;;0.40;0.40;;;;;;;9.06;100.00;102534.78;5037065;28;20416;-82
2023/11/22 00:51:07;;;;;;;0.30;0.30;;;;;;;9.06;100.00;102540.16;5053879;28;20037;-82
2023/11/22 00:53:33;;;;;;;0.40;0.40;;;;;;;9.08;100.00;102550.78;5038106;28;20033;-82
2023/11/22 00:55:59;;;;;;;0.40;0.40;;;;;;;9.08;100.00;102548.94;5036585;28;20032;-82
2023/11/22 00:58:24;;;;;;;0.40;0.40;;;;;;;9.08;100.00;102556.16;5053485;28;20029;-82
2023/11/22 01:00:50;;;;;;;0.30;0.30;;;;;;;9.07;100.00;102568.69;5036484;28;20407;-82
2023/11/22 01:03:15;;;;;;;0.30;0.30;;;;;;;9.07;100.00;102568.69;5020414;28;20067;-82
2023/11/22 01:05:42;;;;;;;0.38;0.38;;;;;;;9.08;100.00;102570.41;5053161;28;20086;-82
2023/11/22 01:08:08;;;;;;;0.40;0.40;;;;;;;9.07;100.00;102563.31;5036892;28;20029;-82
2023/11/22 01:10:33;;;;;;;0.30;0.30;;;;;;;9.04;100.00;102547.47;5036893;28;20514;-82
2023/11/22 01:12:59;;;;;;;0.30;0.30;;;;;;;9.06;100.00;102561.63;5036670;28;20024;-82
2023/11/22 01:15:24;;;;;;;0.38;0.38;;;;;;;9.07;100.00;102559.78;5036268;28;20029;-82
2023/11/22 01:17:50;;;;;;;0.40;0.40;;;;;;;9.04;100.00;102547.47;5052820;28;20438;-82
2023/11/22 01:20:15;;;;;;;0.38;0.38;;;;;;;9.06;100.00;102545.53;5020274;28;20048;-82
2023/11/22 01:22:42;;;;;;;0.30;0.30;;;;;;;9.03;100.00;102538.56;5036534;28;20367;-82
2023/11/22 01:25:08;;;;;;;0.40;0.40;;;;;;;8.99;100.00;102533.56;5019953;28;20029;-82
2023/11/22 01:27:33;;;;;;;0.43;0.43;;;;;;;8.97;100.00;102527.47;5020065;28;20029;-82
2023/11/22 01:29:59;;;;;;;0.35;0.35;;;;;;;8.94;100.00;102533.91;5036069;28;20086;-82
2023/11/22 01:32:25;;;;;;;0.40;0.40;;;;;;;8.92;100.00;102527.00;5036409;28;20041;-82
2023/11/22 01:34:50;;;;;;;0.40;0.40;;;;;;;8.83;100.00;102517.81;5036841;28;20029;-82
2023/11/22 01:37:16;;;;;;;0.40;0.40;;;;;;;8.73;100.00;102507.00;5052515;28;20426;-82
2023/11/22 01:39:41;;;;;;;0.30;0.30;;;;;;;8.68;100.00;102510.97;5036191;28;20091;-82
2023/11/22 01:42:08;;;;;;;0.30;0.30;;;;;;;8.62;100.00;102519.53;5036270;28;20037;-82
2023/11/22 01:44:33;;;;;;;0.40;0.40;;;;;;;8.63;100.00;102511.38;5035788;28;20100;-82
2023/11/22 01:46:59;;;;;;;0.40;0.40;;;;;;;8.72;100.00;102507.09;5036165;28;20037;-82
2023/11/22 01:49:24;;;;;;;0.30;0.30;;;;;;;8.79;100.00;102511.88;5019686;28;20387;-82
2023/11/22 01:51:50;;;;;;;0.40;0.40;;;;;;;8.85;100.00;102509.66;5035825;28;20037;-82
2023/11/22 01:54:18;;;;;;;0.40;0.40;;;;;;;8.89;100.00;102513.81;5052401;28;20094;-82
2023/11/22 01:56:44;;;;;;;0.30;0.30;;;;;;;8.95;100.00;102527.59;5018874;28;20028;-82
2023/11/22 01:59:10;;;;;;;0.40;0.40;;;;;;;8.96;100.00;102525.75;5019864;28;20174;-82
2023/11/22 02:01:37;;;;;;;0.40;0.40;;;;;;;9.02;100.00;102533.31;5052613;28;20624;-82
2023/11/22 02:04:02;;;;;;;0.40;0.40;;;;;;;9.03;100.00;102530.53;5036084;28;20459;-81
2023/11/22 02:06:30;;;;;;;0.40;0.40;;;;;;;9.05;100.00;102542.94;5052037;28;20040;-82
2023/11/22 02:08:56;;;;;;;0.30;0.30;;;;;;;9.05;100.00;102541.16;5036314;28;20039;-82
2023/11/22 02:11:22;;;;;;;0.38;0.38;;;;;;;9.07;100.00;102546.38;5035817;28;20033;-82
2023/11/22 02:13:51;;;;;;;0.30;0.30;;;;;;;9.07;100.00;102538.31;5035978;28;20041;-82
2023/11/22 02:16:17;;;;;;;0.40;0.40;;;;;;;9.06;100.00;102526.75;5019219;28;20056;-82
2023/11/22 02:18:47;;;;;;;0.40;0.40;;;;;;;9.07;100.00;102528.44;5019473;28;20033;-82
2023/11/22 02:21:14;;;;;;;0.40;0.40;;;;;;;9.07;100.00;102520.38;5053064;28;20060;-82
2023/11/22 02:23:42;;;;;;;0.30;0.30;;;;;;;9.06;100.00;102532.09;5035951;28;20090;-82
2023/11/22 02:26:08;;;;;;;0.30;0.30;;;;;;;9.01;100.00;102521.72;5052275;28;20535;-82
2023/11/22 02:28:34;;;;;;;0.40;0.40;;;;;;;8.96;100.00;102520.41;5051741;28;20124;-82
2023/11/22 02:30:59;;;;;;;0.40;0.40;;;;;;;8.85;100.00;102505.16;5019353;28;20418;-82
2023/11/22 02:33:25;;;;;;;0.40;0.40;;;;;;;8.90;100.00;102511.00;5051815;28;20063;-82
2023/11/22 02:35:51;;;;;;;0.40;0.40;;;;;;;8.93;100.00;102509.91;5019435;28;20025;-82
2023/11/22 02:38:18;;;;;;;0.30;0.30;;;;;;;8.88;100.00;102499.53;5019242;28;20040;-82
2023/11/22 02:40:44;;;;;;;0.40;0.40;;;;;;;8.92;100.00;102481.41;5035826;28;20032;-82
2023/11/22 02:43:11;;;;;;;0.40;0.40;;;;;;;8.95;100.00;102478.47;5035047;28;20433;-82
2023/11/22 02:45:36;;;;;;;0.30;0.30;;;;;;;8.94;100.00;102471.38;5035816;28;20069;-82
2023/11/22 02:48:03;;;;;;;0.40;0.40;;;;;;;8.96;100.00;102480.16;5051763;28;20053;-82
2023/11/22 02:50:31;;;;;;;0.40;0.40;;;;;;;8.93;100.00;102470.53;5019256;28;20036;-82
2023/11/22 02:52:59;;;;;;;0.30;0.30;;;;;;;8.95;100.00;102471.25;5051731;28;20536;-82
2023/11/22 02:55:24;;;;;;;0.40;0.40;;;;;;;8.94;100.00;102466.84;5018965;28;20117;-82
2023/11/22 02:57:50;;;;;;;0.35;0.35;;;;;;;8.96;100.00;102474.78;5052839;28;20061;-82
2023/11/22 03:00:18;;;;;;;0.30;0.30;;;;;;;8.95;100.00;102479.31;5051837;28;20033;-82
2023/11/22 03:02:46;;;;;;;0.30;0.30;;;;;;;8.96;100.00;102490.88;5051618;28;20036;-82
2023/11/22 03:05:14;;;;;;;0.40;0.40;;;;;;;8.95;100.00;102483.81;5035377;28;20387;-82
2023/11/22 03:07:41;;;;;;;0.30;0.30;;;;;;;8.95;100.00;102473.94;5054254;28;20036;-82
2023/11/22 03:10:10;;;;;;;0.30;0.30;;;;;;;8.97;100.00;102479.16;5038479;28;20037;-82
2023/11/22 03:12:35;;;;;;;0.40;0.40;;;;;;;8.93;100.00;102485.78;5056587;28;20029;-82
2023/11/22 03:15:01;;;;;;;0.40;0.40;;;;;;;8.96;100.00;102499.78;5055046;28;20032;-82
2023/11/22 03:17:30;;;;;;;0.30;0.30;;;;;;;8.97;100.00;102503.31;5022716;28;20076;-83
2023/11/22 03:19:57;;;;;;;0.47;0.47;;;;;;;8.98;100.00;102505.03;5055025;28;20033;-82
2023/11/22 03:22:23;;;;;;;0.40;0.40;;;;;;;8.98;100.00;102502.34;5021974;28;20369;-83
2023/11/22 03:24:49;;;;;;;0.40;0.40;;;;;;;9.00;100.00;102511.16;5055241;28;20033;-82
2023/11/22 03:27:15;;;;;;;0.30;0.30;;;;;;;8.97;100.00;102497.94;5038728;28;20044;-82
2023/11/22 03:29:41;;;;;;;0.40;0.40;;;;;;;9.01;100.00;102496.75;5038851;28;20037;-82
2023/11/22 03:32:06;;;;;;;0.40;0.40;;;;;;;9.01;100.00;102496.75;5054807;28;20037;-83
2023/11/22 03:34:32;;;;;;;0.40;0.40;;;;;;;9.03;100.00;102510.91;5038359;28;20048;-83
2023/11/22 03:36:58;;;;;;;0.40;0.40;;;;;;;9.05;100.00;102498.22;5038096;28;20052;-83
2023/11/22 03:39:24;;;;;;;0.40;0.40;;;;;;;9.06;100.00;102507.97;5038292;28;20524;-82
2023/11/22 03:41:50;;;;;;;0.30;0.30;;;;;;;9.08;100.00;102505.16;5022096;28;20099;-82
2023/11/22 03:44:16;;;;;;;0.30;0.30;;;;;;;9.08;100.00;102507.84;5055857;28;20107;-83
2023/11/22 03:46:42;;;;;;;0.40;0.40;;;;;;;9.08;100.00;102497.97;5038247;28;20028;-83
2023/11/22 03:49:08;;;;;;;0.40;0.40;;;;;;;9.09;100.00;102488.06;5022733;28;20455;-82
2023/11/22 03:51:34;;;;;;;0.30;0.30;;;;;;;9.07;100.00;102490.88;5054753;28;20353;-83
2023/11/22 03:54:00;;;;;;;0.40;0.40;;;;;;;9.04;100.00;102464.28;5054789;28;20033;-82
2023/11/22 03:56:29;;;;;;;0.40;0.40;;;;;;;9.09;100.00;102469.28;5054262;28;20079;-83
2023/11/22 03:58:55;;;;;;;0.40;0.40;;;;;;;9.09;100.00;102480.88;5022004;28;20033;-82
2023/11/22 04:01:21;;;;;;;0.40;0.40;;;;;;;9.08;100.00;102472.97;5005182;28;20033;-83
2023/11/22 04:03:51;;;;;;;0.30;0.30;;;;;;;9.08;100.00;102470.28;5021348;28;20037;-83
2023/11/22 04:06:17;;;;;;;0.40;0.40;;;;;;;9.10;100.00;102471.00;5054546;28;20033;-83
2023/11/22 04:08:46;;;;;;;0.40;0.40;;;;;;;9.13;100.00;102485.03;5054300;28;20048;-83
2023/11/22 04:11:12;;;;;;;0.30;0.30;;;;;;;9.13;100.00;102474.28;5037973;28;20037;-82
2023/11/22 04:13:38;;;;;;;0.40;0.40;;;;;;;9.15;100.00;102479.53;5037453;28;20059;-82
2023/11/22 04:16:07;;;;;;;0.30;0.30;;;;;;;9.19;100.00;102486.34;5020995;28;20029;-83
2023/11/22 04:18:32;;;;;;;0.40;0.40;;;;;;;9.18;100.00;102498.94;5020495;28;20506;-83
2023/11/22 04:21:01;;;;;;;0.40;0.40;;;;;;;9.18;100.00;102490.88;5037268;28;20112;-83
2023/11/22 04:23:26;;;;;;;0.40;0.40;;;;;;;9.14;100.00;102494.78;5038311;28;20124;-82
2023/11/22 04:25:52;;;;;;;0.40;0.40;;;;;;;9.12;100.00;102496.72;5053902;28;20507;-82
2023/11/22 04:28:18;;;;;;;0.35;0.35;;;;;;;9.13;100.00;102498.44;5021113;28;20111;-82
2023/11/22 04:30:43;;;;;;;0.40;0.40;;;;;;;9.14;100.00;102489.41;5021036;28;20044;-82
2023/11/22 04:33:09;;;;;;;0.30;0.30;;;;;;;9.13;100.00;102476.09;5037239;28;20060;-83
2023/11/22 04:35:36;;;;;;;0.40;0.40;;;;;;;9.15;100.00;102474.16;5053900;28;20391;-83
2023/11/22 04:38:03;;;;;;;0.40;0.40;;;;;;;9.13;100.00;102451.94;5053542;28;20028;-82
2023/11/22 04:40:29;;;;;;;0.40;0.40;;;;;;;9.10;100.00;102455.72;5053552;28;20083;-82
2023/11/22 04:42:55;;;;;;;0.40;0.40;;;;;;;9.13;100.00;102460.00;5004583;28;20583;-82
2023/11/22 04:45:21;;;;;;;0.40;0.40;;;;;;;9.12;100.00;102463.66;5037149;28;20049;-83
2023/11/22 04:47:46;;;;;;;0.32;0.32;;;;;;;9.14;100.00;102465.25;5053380;28;20029;-83
2023/11/22 04:50:12;;;;;;;0.40;0.40;;;;;;;9.15;100.00;102464.25;5037226;28;20032;-83
2023/11/22 04:52:39;;;;;;;0.40;0.40;;;;;;;9.15;100.00;102463.41;5021063;28;20028;-82
2023/11/22 04:55:05;;;;;;;0.40;0.40;;;;;;;9.15;100.00;102463.41;5037769;28;20048;-83
2023/11/22 04:57:30;;;;;;;0.30;0.30;;;;;;;9.18;100.00;102468.53;5037187;28;20468;-82
2023/11/22 04:59:56;;;;;;;0.40;0.40;;;;;;;9.16;100.00;102465.13;5053154;28;20061;-83
2023/11/22 05:02:23;;;;;;;0.40;0.40;;;;;;;9.20;100.00;102472.78;5037076;28;20047;-83
2023/11/22 05:04:49;;;;;;;0.40;0.40;;;;;;;9.22;100.00;102465.47;5052923;28;20119;-82
2023/11/22 05:07:15;;;;;;;0.40;0.40;;;;;;;9.25;100.00;102456.31;5036747;28;20033;-83
2023/11/22 05:09:43;;;;;;;0.40;0.40;;;;;;;9.26;100.00;102466.06;5036669;28;20051;-83
2023/11/22 05:12:10;;;;;;;0.38;0.38;;;;;;;9.27;100.00;102462.44;5053339;28;20037;-83
2023/11/22 05:14:37;;;;;;;0.40;0.40;;;;;;;9.28;100.00;102469.50;5036876;28;20056;-82
2023/11/22 05:17:04;;;;;;;0.38;0.38;;;;;;;9.28;100.00;102474.00;5020025;28;20028;-83
2023/11/22 05:19:31;;;;;;;0.40;0.40;;;;;;;9.31;100.00;102481.81;5020367;28;20112;-82
2023/11/22 05:21:57;;;;;;;0.30;0.30;;;;;;;9.29;100.00;102475.69;5053094;28;20112;-83
2023/11/22 05:24:22;;;;;;;0.40;0.40;;;;;;;9.33;100.00;102477.19;5053026;28;20533;-83
2023/11/22 05:26:48;;;;;;;0.40;0.40;;;;;;;9.37;100.00;102481.31;5053799;28;20048;-82
2023/11/22 05:29:14;;;;;;;0.40;0.40;;;;;;;9.40;100.00;102483.75;5036264;28;20036;-83
2023/11/22 05:31:39;;;;;;;0.30;0.30;;;;;;;9.35;100.00;102481.44;5052925;28;20028;-82
2023/11/22 05:34:05;;;;;;;0.30;0.30;;;;;;;9.42;100.00;102487.16;5053265;28;20033;-83
2023/11/22 05:36:31;;;;;;;0.30;0.30;;;;;;;9.47;100.00;102490.31;5036230;28;20037;-81
2023/11/22 05:38:59;;;;;;;0.30;0.30;;;;;;;9.49;100.00;102490.19;5036381;28;20499;-83
2023/11/22 05:41:28;;;;;;;0.30;0.30;;;;;;;9.51;100.00;102490.94;5036667;28;20083;-83
2023/11/22 05:43:53;;;;;;;0.40;0.40;;;;;;;9.53;100.00;102495.19;5019751;28;20033;-83
2023/11/22 05:46:24;;;;;;;0.40;0.40;;;;;;;9.57;100.00;102485.88;5019975;28;20033;-83
2023/11/22 05:48:54;;;;;;;0.43;0.43;;;;;;;9.59;100.00;102483.94;5004720;28;20039;-82
2023/11/22 05:51:26;;;;;;;0.40;0.40;;;;;;;9.59;100.00;102480.41;5021596;28;20037;-82
2023/11/22 05:53:52;;;;;;;0.30;0.30;;;;;;;9.60;100.00;102472.19;5036030;28;20094;-82
2023/11/22 05:56:18;;;;;;;0.32;0.32;;;;;;;9.60;100.00;102474.88;5035556;28;20029;-82
2023/11/22 05:58:44;;;;;;;0.32;0.32;;;;;;;9.59;100.00;102467.81;5036055;28;20123;-82
2023/11/22 06:01:13;;;;;;;0.30;0.30;;;;;;;9.60;100.00;102472.19;5052474;28;20133;-82
2023/11/22 06:03:56;;;;;;;0.40;0.40;;;;;;;9.64;100.00;102475.50;5036969;28;20029;-83
2023/11/22 06:06:22;;;;;;;0.30;0.30;;;;;;;9.63;100.00;102469.28;5052135;28;20033;-83
2023/11/22 06:08:48;;;;;;;0.40;0.40;;;;;;;9.63;100.00;102469.28;5019942;28;20064;-83
2023/11/22 06:11:15;;;;;;;0.30;0.30;;;;;;;9.63;100.00;102474.66;5019622;28;20464;-83
2023/11/22 06:13:44;;;;;;;0.50;0.50;;;;;;;9.63;100.00;102473.78;5036077;28;20025;-83
2023/11/22 06:16:09;;;;;;;0.40;0.40;;;;;;;9.60;100.00;102474.88;5035608;28;20454;-83
2023/11/22 06:18:40;;;;;;;0.40;0.40;;;;;;;9.60;100.00;102474.88;5019430;28;20060;-82
2023/11/22 06:21:12;;;;;;;0.30;0.30;;;;;;;9.61;100.00;102473.06;5020699;28;20552;-82
2023/11/22 06:23:40;;;;;;;0.40;0.40;;;;;;;9.62;100.00;102481.00;5019831;28;20033;-83
2023/11/22 06:26:07;;;;;;;0.40;0.40;;;;;;;9.61;100.00;102490.03;5035645;28;20082;-82
2023/11/22 06:28:32;;;;;;;0.32;0.32;;;;;;;9.66;100.00;102486.97;5035282;28;20044;-82
2023/11/22 06:30:58;;;;;;;0.40;0.40;;;;;;;9.62;100.00;102475.63;5019478;28;20025;-83
2023/11/22 06:33:24;;;;;;;0.30;0.30;;;;;;;9.64;100.00;102478.19;5035779;28;20426;-83
2023/11/22 06:35:49;;;;;;;0.40;0.40;;;;;;;9.63;100.00;102480.03;5052112;28;20036;-82
2023/11/22 06:38:16;;;;;;;0.40;0.40;;;;;;;9.63;100.00;102476.47;5019386;28;20041;-83
2023/11/22 06:40:42;;;;;;;0.40;0.40;;;;;;;9.62;100.00;102472.94;5035327;28;20033;-82
2023/11/22 06:43:08;;;;;;;0.40;0.40;;;;;;;9.63;100.00;102471.97;5038785;28;20041;-82
2023/11/22 06:45:33;;;;;;;0.30;0.30;;;;;;;9.62;100.00;102467.56;5022814;28;20036;-83
2023/11/22 06:47:59;;;;;;;0.38;0.38;;;;;;;9.62;100.00;102462.19;5039480;28;20039;-82
2023/11/22 06:50:24;;;;;;;0.30;0.30;;;;;;;9.62;100.00;102464.88;5022969;28;20074;-83
2023/11/22 06:52:52;;;;;;;0.40;0.40;;;;;;;9.62;100.00;102472.09;5039005;28;20032;-83
2023/11/22 06:55:18;;;;;;;0.40;0.40;;;;;;;9.57;100.00;102467.09;5040071;28;20047;-83
2023/11/22 06:57:44;;;;;;;0.40;0.40;;;;;;;9.57;100.00;102463.56;5039354;28;20480;-83
2023/11/22 07:00:10;;;;;;;0.30;0.30;;;;;;;9.58;100.00;102476.00;5039167;28;20025;-83
2023/11/22 07:02:36;;;;;;;0.40;0.40;;;;;;;9.54;100.00;102470.03;5039238;28;20033;-83
2023/11/22 07:05:03;;;;;;;0.40;0.40;;;;;;;9.56;100.00;102476.13;5022772;28;20028;-83
2023/11/22 07:07:29;;;;;;;0.40;0.40;;;;;;;9.58;100.00;102490.28;5039365;28;20538;-83
2023/11/22 07:09:58;;;;;;;0.40;0.40;;;;;;;9.56;100.00;102492.25;5022714;28;20166;-83
2023/11/22 07:12:25;;;;;;;0.40;0.40;;;;;;;9.58;100.00;102484.03;5022846;28;20036;-83
2023/11/22 07:14:50;;;;;;;0.40;0.40;;;;;;;9.59;100.00;102483.09;5038758;28;20029;-83
2023/11/22 07:17:17;;;;;;;0.30;0.30;;;;;;;9.58;100.00;102495.66;5038691;28;20391;-83
2023/11/22 07:19:46;;;;;;;0.40;0.40;;;;;;;9.60;100.00;102485.63;5055247;28;20029;-83
2023/11/22 07:22:15;;;;;;;0.40;0.40;;;;;;;9.54;100.00;102470.03;5022663;28;20043;-83
2023/11/22 07:24:51;;;;;;;0.40;0.40;;;;;;;9.58;100.00;102476.88;5055683;28;20452;-83
2023/11/22 07:27:18;;;;;;;0.40;0.40;;;;;;;9.58;100.00;102479.56;5056376;28;20116;-83
2023/11/22 07:29:45;;;;;;;0.40;0.40;;;;;;;9.61;100.00;102471.25;5038367;28;20051;-83
2023/11/22 07:32:15;;;;;;;0.30;0.30;;;;;;;9.64;100.00;102479.03;5055146;28;20033;-83
2023/11/22 07:34:40;;;;;;;0.40;0.40;;;;;;;9.58;100.00;102470.63;5022196;28;20033;-83
2023/11/22 07:37:07;;;;;;;0.30;0.30;;;;;;;9.59;100.00;102473.19;5038096;28;20029;-82
2023/11/22 07:39:35;;;;;;;0.40;0.40;;;;;;;9.66;100.00;102482.47;5070224;28;20094;-82
2023/11/22 07:42:02;;;;;;;0.40;0.40;;;;;;;9.66;100.00;102479.75;5020268;28;20032;-83
2023/11/22 07:44:32;;;;;;;0.40;0.40;;;;;;;9.61;100.00;102479.28;5003748;28;20029;-82
2023/11/22 07:46:59;;;;;;;0.40;0.40;;;;;;;9.62;100.00;102485.50;5054846;28;20032;-83
2023/11/22 07:49:25;;;;;;;0.40;0.40;;;;;;;9.60;100.00;102485.63;5006158;28;20041;-82
2023/11/22 07:51:53;;;;;;;0.40;0.40;;;;;;;9.58;100.00;102479.56;5054756;28;20479;-83
2023/11/22 07:54:22;;;;;;;0.40;0.40;;;;;;;9.58;100.00;102482.25;5037454;28;20035;-82
2023/11/22 07:56:49;;;;;;;0.30;0.30;;;;;;;9.60;100.00;102477.56;5038226;28;20087;-83
2023/11/22 07:59:15;;;;;;;0.40;0.40;;;;;;;9.60;100.00;102477.56;5021850;28;20036;-83
2023/11/22 08:01:47;;;;;;;0.40;0.40;;;;;;;9.57;100.00;102479.66;5038239;28;20493;-83
2023/11/22 08:04:13;;;;;;;0.30;0.30;;;;;;;9.60;100.00;102492.84;5021832;28;20104;-83
2023/11/22 08:06:38;;;;;;;0.30;0.30;;;;;;;9.66;100.00;102485.13;5037995;28;20123;-82
2023/11/22 08:09:04;;;;;;;0.40;0.40;;;;;;;9.70;100.00;102488.41;5037415;28;20025;-83
2023/11/22 08:11:31;;;;;;;0.40;0.40;;;;;;;9.75;100.00;102488.03;5054491;28;20035;-83
2023/11/22 08:13:59;;;;;;;0.40;0.40;;;;;;;9.75;100.00;102485.34;5021374;28;20090;-83
2023/11/22 08:16:27;;;;;;;0.40;0.40;;;;;;;9.71;100.00;102492.78;5037246;28;20025;-82
2023/11/22 08:18:53;;;;;;;0.40;0.40;;;;;;;9.78;100.00;102485.94;5037812;28;20426;-82
2023/11/22 08:21:19;;;;;;;0.30;0.30;;;;;;;9.80;100.00;102501.94;5037556;28;20103;-83
2023/11/22 08:23:48;;;;;;;0.30;0.30;;;;;;;9.78;100.00;102491.31;5037111;28;20025;-82
2023/11/22 08:26:14;;;;;;;0.40;0.40;;;;;;;9.83;100.00;102504.38;5037331;28;20479;-82
2023/11/22 08:28:40;;;;;;;0.30;0.30;;;;;;;9.84;100.00;102504.25;5020158;28;20045;-83
2023/11/22 08:31:09;;;;;;;0.30;0.30;;;;;;;9.85;100.00;102505.94;5037304;28;20033;-82
2023/11/22 08:33:35;;;;;;;0.40;0.40;;;;;;;9.79;100.00;102502.91;5020927;28;20074;-83
2023/11/22 08:36:09;;;;;;;0.50;0.50;;;;;;;9.81;100.00;102512.53;5053490;28;20063;-83
2023/11/22 08:38:35;;;;;;;0.40;0.40;;;;;;;9.82;100.00;102513.41;5020964;28;20507;-82
2023/11/22 08:41:03;;;;;;;0.30;0.30;;;;;;;9.85;100.00;102518.53;5053846;28;20041;-82
2023/11/22 08:43:28;;;;;;;0.30;0.30;;;;;;;9.87;100.00;102516.53;5037062;28;20033;-83
2023/11/22 08:45:54;;;;;;;0.40;0.40;;;;;;;9.88;100.00;102518.28;5020308;28;20391;-82
2023/11/22 08:48:19;;;;;;;0.35;0.35;;;;;;;9.89;100.00;102518.13;5037210;28;20024;-83
2023/11/22 08:50:47;;;;;;;0.40;0.40;;;;;;;9.90;100.00;102519.84;5020496;28;20039;-82
2023/11/22 08:53:12;;;;;;;0.35;0.35;;;;;;;9.92;100.00;102522.38;5036850;28;20025;-83
2023/11/22 08:55:38;;;;;;;0.40;0.40;;;;;;;9.93;100.00;102525.97;5053383;28;20032;-83
2023/11/22 08:58:05;;;;;;;0.40;0.40;;;;;;;9.93;100.00;102536.69;5037457;28;20033;-83
2023/11/22 09:00:32;;;;;;;0.40;0.40;;;;;;;9.93;100.00;102537.56;5053478;28;20108;-83
2023/11/22 09:02:58;;;;;;;0.30;0.30;;;;;;;9.94;100.00;102541.94;5052414;28;20111;-83
2023/11/22 09:05:28;;;;;;;0.40;0.40;;;;;;;9.93;100.00;102539.38;5017725;28;20614;-83
2023/11/22 09:08:04;;;;;;;0.40;0.40;;;;;;;9.94;100.00;102533.88;5020685;28;20033;-83
2023/11/22 09:10:30;;;;;;;0.30;0.30;;;;;;;9.96;100.00;102542.66;5036894;28;20086;-82
2023/11/22 09:12:59;;;;;;;0.30;0.30;;;;;;;10.00;100.00;102538.75;5053205;28;20033;-83
2023/11/22 09:15:29;;;;;;;0.38;0.38;;;;;;;10.02;100.00;102533.22;5037431;28;20051;-83
2023/11/22 09:17:58;;;;;;;0.40;0.40;;;;;;;10.05;100.00;102543.72;5036677;28;20036;-83
2023/11/22 09:20:26;;;;;;;0.40;0.40;;;;;;;10.06;100.00;102540.91;5036801;28;20029;-83
2023/11/22 09:22:54;;;;;;;0.40;0.40;;;;;;;10.09;100.00;102535.28;5020580;28;20040;-83
2023/11/22 09:25:30;;;;;;;0.40;0.40;;;;;;;10.09;100.00;102535.28;5036171;28;20028;-83
2023/11/22 09:27:58;;;;;;;0.40;0.40;;;;;;;10.15;100.00;102546.50;5020177;28;20029;-83
2023/11/22 09:30:38;;;;;;;0.30;0.30;;;;;;;10.18;100.00;102544.38;5036765;28;20033;-84
2023/11/22 09:33:14;;;;;;;0.40;0.40;;;;;;;10.21;100.00;102548.66;5022320;28;20044;-83
2023/11/22 09:35:41;;;;;;;0.45;0.45;;;;;;;10.20;100.00;102542.44;5035140;28;20108;-84
2023/11/22 09:38:15;;;;;;;0.40;0.40;;;;;;;10.24;100.00;102549.28;5017864;28;20044;-84
2023/11/22 09:40:51;;;;;;;0.40;0.40;;;;;;;10.26;100.00;102543.75;5035688;28;20135;-84
2023/11/22 09:43:25;;;;;;;0.40;0.40;;;;;;;10.29;100.00;102547.09;5034406;28;20118;-85
2023/11/22 09:46:23;;;;;;;0.40;0.40;;;;;;;10.29;100.00;102554.28;5018520;28;20037;-84
2023/11/22 09:48:56;;;;;;;0.40;0.40;;;;;;;10.42;100.00;102557.63;5050207;28;20502;-85
2023/11/22 09:51:24;;;;;;;0.40;0.40;;;;;;;10.45;100.00;102561.88;5035145;28;20036;-85
2023/11/22 09:54:06;;;;;;;0.45;0.45;;;;;;;10.48;100.00;102557.13;5019529;28;20406;-86
2023/11/22 09:56:32;;;;;;;0.30;0.30;;;;;;;10.52;100.00;102561.22;5036650;28;20068;-86
2023/11/22 09:59:00;;;;;;;0.40;0.40;;;;;;;10.56;100.00;102559.16;5019908;28;20082;-86
2023/11/22 10:01:36;;;;;;;0.40;0.40;;;;;;;10.56;100.00;102562.69;5035918;28;20049;-88
2023/11/22 10:04:05;;;;;;;0.40;0.40;;;;;;;10.58;100.00;102557.16;5020572;28;20029;-86
2023/11/22 10:06:34;;;;;;;0.40;0.40;;;;;;;10.57;100.00;102553.63;5036332;28;20040;-85
2023/11/22 10:09:07;;;;;;;0.40;0.40;;;;;;;10.62;100.00;102549.69;5019925;28;20039;-86
2023/11/22 10:11:38;;;;;;;0.40;0.40;;;;;;;10.64;100.00;102543.19;5021434;28;20478;-87
2023/11/22 10:14:04;;;;;;;0.40;0.40;;;;;;;10.69;100.00;102543.66;5036135;28;20048;-87
2023/11/22 10:16:30;;;;;;;0.40;0.40;;;;;;;10.74;100.00;102540.53;5052577;28;20099;-85
2023/11/22 10:18:57;;;;;;;0.40;0.40;;;;;;;10.75;100.00;102547.66;5039720;28;20433;-86
2023/11/22 10:21:24;;;;;;;0.30;0.30;;;;;;;10.63;100.00;102535.25;5056624;28;20112;-86
2023/11/22 10:23:53;;;;;;;0.40;0.40;;;;;;;10.60;100.00;102536.38;5039898;28;20114;-87
2023/11/22 10:26:19;;;;;;;0.40;0.40;;;;;;;10.64;100.00;102534.25;5023586;28;20036;-87
2023/11/22 10:28:55;;;;;;;0.40;0.40;;;;;;;10.64;100.00;102539.63;5039789;28;20368;-87
2023/11/22 10:31:22;;;;;;;0.40;0.40;;;;;;;10.67;100.00;102534.00;5023388;28;20029;-87
2023/11/22 10:33:48;;;;;;;0.40;0.40;;;;;;;10.70;100.00;102533.75;5023231;28;20198;-87
2023/11/22 10:36:14;;;;;;;0.50;0.50;;;;;;;10.72;100.00;102547.91;5055809;28;20123;-85
2023/11/22 10:38:42;;;;;;;0.40;0.40;;;;;;;10.69;100.00;102543.66;5022938;28;20039;-87
2023/11/22 10:41:08;;;;;;;0.40;0.40;;;;;;;10.70;100.00;102544.50;5039163;28;20402;-86
2023/11/22 10:43:37;;;;;;;0.40;0.40;;;;;;;10.73;100.00;102542.38;5054916;28;20037;-86
2023/11/22 10:46:04;;;;;;;0.40;0.40;;;;;;;10.78;100.00;102539.31;5054831;28;20021;-86
2023/11/22 10:48:34;;;;;;;0.40;0.40;;;;;;;10.84;100.00;102541.44;5037885;28;20036;-87
2023/11/22 10:51:04;;;;;;;0.40;0.40;;;;;;;10.84;100.00;102540.59;5022544;28;20115;-87
2023/11/22 10:53:34;;;;;;;0.40;0.40;;;;;;;10.87;100.00;102540.34;5022184;28;20104;-87
2023/11/22 10:56:11;;;;;;;0.40;0.40;;;;;;;10.91;100.00;102545.31;5037979;28;20035;-87
2023/11/22 10:58:42;;;;;;;0.40;0.40;;;;;;;10.92;100.00;102543.47;5022493;28;20064;-86
2023/11/22 11:01:09;;;;;;;0.30;0.30;;;;;;;10.86;100.00;102544.88;5022393;28;20045;-87
2023/11/22 11:03:39;;;;;;;0.40;0.40;;;;;;;10.88;100.00;102539.38;5038626;28;20037;-86
2023/11/22 11:06:09;;;;;;;0.40;0.40;;;;;;;10.92;100.00;102538.94;5022714;28;20044;-87
2023/11/22 11:08:38;;;;;;;0.40;0.40;;;;;;;11.04;100.00;102555.88;5038993;28;20029;-87
2023/11/22 11:11:05;;;;;;;0.40;0.40;;;;;;;10.97;100.00;102541.22;5037603;28;20037;-85
2023/11/22 11:13:31;;;;;;;0.40;0.40;;;;;;;10.94;100.00;102547.75;5022813;28;20068;-87
2023/11/22 11:15:57;;;;;;;0.40;0.40;;;;;;;10.93;100.00;102550.59;5055389;28;20053;-87
2023/11/22 11:18:24;;;;;;;0.40;0.40;;;;;;;10.90;100.00;102540.06;5054847;28;20455;-87
2023/11/22 11:20:55;;;;;;;0.40;0.40;;;;;;;10.92;100.00;102549.72;5022363;28;20147;-87
2023/11/22 11:23:25;;;;;;;0.40;0.40;;;;;;;10.97;100.00;102534.00;5020536;28;20101;-87
2023/11/22 11:25:53;;;;;;;0.50;0.50;;;;;;;10.95;100.00;102532.44;5021171;28;20039;-85